»·PEaware :: DAL1225 KLAX-KSAN

DAL1225 :: KLAX-KSAN

FLIGHT INFORMATION

Flight Status: Arrived
Operator:
Delta Air Lines
More flights by this operator :: More flights under this callsign
Pilot: Sagga T. (27992)
Aircraft: BOEING 737-800
(B738)
More flights by this aircraft type
Origin: KLAX Los Angeles Intl
United States
Destination: KSAN San Diego Intl-Lindbergh
United States
More flights between these airports :: More routes between these airports
Route: +LAXX1 MZB
File this flight plan on PilotEdge
Remarks: RMK / SmartCopilot Test Flight / SIMBRIEF
Altitude:
(Current/Filed)
11,000ft
Speed:
(Current/Filed)
323kts
Departed: 12-Feb-20 06:49 PM
Arrived: 12-Feb-20 07:27 PM
Distance/Time
Traveled:
94nm/0:38
Distance/Time
To Go:
Arrived

Flight Plot

Page will automatically refresh every two minutes.

Flight plan parsing failed; only flown route is shown


Map Options




Map Legend


Flown Route
Filed Route
Departure Airport
Arrival Airport
Navaid (VOR, NDB)
Fix

Horizontal Profiles

Position Reports

Time Latitude Longitude Heading Altitude Ground
Speed
12-Feb-20 17:57 33.947067 -118.403473 229 136ft 0kts
12-Feb-20 17:58 33.947067 -118.403473 229 136ft 0kts
12-Feb-20 17:59 33.947067 -118.403473 229 136ft 0kts
12-Feb-20 18:00 33.947067 -118.403473 229 136ft 0kts
12-Feb-20 18:01 33.947067 -118.403473 229 136ft 0kts
12-Feb-20 18:02 33.947067 -118.403473 229 136ft 0kts
12-Feb-20 18:03 33.947067 -118.403473 229 136ft 0kts
12-Feb-20 18:04 33.947067 -118.403473 229 136ft 0kts
12-Feb-20 18:05 33.947067 -118.403473 229 136ft 0kts
12-Feb-20 18:06 33.947067 -118.403473 229 136ft 0kts
12-Feb-20 18:07 33.947067 -118.403473 229 136ft 0kts
12-Feb-20 18:08 33.947067 -118.403473 229 136ft 0kts
12-Feb-20 18:09 33.947067 -118.403473 229 136ft 0kts
12-Feb-20 18:10 33.947067 -118.403473 229 136ft 0kts
12-Feb-20 18:11 33.947067 -118.403473 229 136ft 0kts
12-Feb-20 18:12 33.947067 -118.403473 229 136ft 0kts
12-Feb-20 18:13 33.947067 -118.403473 229 136ft 0kts
12-Feb-20 18:14 33.947067 -118.403473 229 136ft 0kts
12-Feb-20 18:15 33.947067 -118.403473 229 136ft 0kts
12-Feb-20 18:16 33.947067 -118.403473 229 136ft 0kts
12-Feb-20 18:17 33.947067 -118.403473 229 136ft 0kts
12-Feb-20 18:18 33.947067 -118.403473 229 136ft 0kts
12-Feb-20 18:19 33.947067 -118.403473 229 136ft 0kts
12-Feb-20 18:20 33.947067 -118.403473 229 136ft 0kts
12-Feb-20 18:21 33.947067 -118.403473 229 136ft 0kts
12-Feb-20 18:22 33.947067 -118.403473 229 136ft 0kts
12-Feb-20 18:23 33.947067 -118.403473 229 136ft 0kts
12-Feb-20 18:24 33.947067 -118.403473 229 136ft 0kts
12-Feb-20 18:25 33.947067 -118.403473 229 136ft 0kts
12-Feb-20 18:26 33.947067 -118.403473 229 136ft 0kts
12-Feb-20 18:28 33.947067 -118.403473 229 136ft 0kts
12-Feb-20 18:29 33.947067 -118.403473 229 136ft 0kts
12-Feb-20 18:30 33.947067 -118.403473 229 136ft 0kts
12-Feb-20 18:31 33.947067 -118.403473 229 136ft 0kts
12-Feb-20 18:32 33.947067 -118.403473 229 136ft 0kts
12-Feb-20 18:33 33.947067 -118.403473 229 136ft 0kts
12-Feb-20 18:34 33.947067 -118.403473 229 136ft 0kts
12-Feb-20 18:35 33.947067 -118.403472 229 136ft 0kts
12-Feb-20 18:36 33.947067 -118.403472 229 136ft 0kts
12-Feb-20 18:37 33.947354 -118.402860 279 136ft 2kts
12-Feb-20 18:38 33.947017 -118.402478 351 136ft 0kts
12-Feb-20 18:39 33.947015 -118.402478 350 136ft 0kts
12-Feb-20 18:40 33.947015 -118.402478 350 136ft 0kts
12-Feb-20 18:41 33.947015 -118.402478 350 136ft 0kts
12-Feb-20 18:42 33.947015 -118.402478 350 136ft 0kts
12-Feb-20 18:43 33.947235 -118.402523 349 135ft 5kts
12-Feb-20 18:44 33.949016 -118.402357 83 136ft 7kts
12-Feb-20 18:45 33.949242 -118.401663 356 136ft 0kts
12-Feb-20 18:46 33.949242 -118.401663 356 136ft 0kts
12-Feb-20 18:47 33.949242 -118.401663 356 136ft 0kts
12-Feb-20 18:47 33.950134 -118.402332 261 136ft 0kts
12-Feb-20 18:49 33.946119 -118.441897 262 1121ft 158kts
12-Feb-20 18:50 33.941411 -118.503628 263 2679ft 216kts
12-Feb-20 18:50 33.935636 -118.571324 263 4485ft 261kts
12-Feb-20 18:51 33.899455 -118.638349 180 7414ft 280kts
12-Feb-20 18:52 33.822494 -118.611367 162 10229ft 301kts
12-Feb-20 18:53 33.739605 -118.559763 121 11012ft 382kts
12-Feb-20 18:54 33.735044 -118.434051 82 10998ft 381kts
12-Feb-20 18:55 33.746311 -118.307854 81 10998ft 381kts
12-Feb-20 18:56 33.757857 -118.180288 81 10998ft 381kts
12-Feb-20 18:57 33.769381 -118.053429 81 10999ft 381kts
12-Feb-20 18:58 33.780936 -117.926929 81 10999ft 381kts
12-Feb-20 18:59 33.781932 -117.800791 116 11017ft 387kts
12-Feb-20 19:00 33.688682 -117.748637 172 11000ft 385kts
12-Feb-20 19:01 33.583817 -117.724176 169 10999ft 384kts
12-Feb-20 19:02 33.481401 -117.690035 147 11006ft 386kts
12-Feb-20 19:03 33.401071 -117.604925 135 11001ft 387kts
12-Feb-20 19:04 33.323746 -117.514431 135 11001ft 387kts
12-Feb-20 19:05 33.244601 -117.427607 148 11008ft 386kts
12-Feb-20 19:06 33.148312 -117.378671 161 10528ft 349kts
12-Feb-20 19:07 33.067376 -117.344757 162 10095ft 284kts
12-Feb-20 19:08 32.993307 -117.313699 162 9400ft 279kts
12-Feb-20 19:09 32.920784 -117.283314 162 8698ft 274kts
12-Feb-20 19:10 32.848860 -117.253232 161 7992ft 271kts
12-Feb-20 19:11 32.784837 -117.210041 129 7301ft 268kts
12-Feb-20 19:12 32.757382 -117.133877 107 7024ft 232kts
12-Feb-20 19:13 32.740076 -117.059830 101 7027ft 234kts
12-Feb-20 19:14 32.727698 -116.986876 101 6361ft 219kts
12-Feb-20 19:15 32.716162 -116.917489 101 5352ft 209kts
12-Feb-20 19:16 32.705337 -116.851580 101 5016ft 199kts
12-Feb-20 19:17 32.692092 -116.788295 135 5021ft 197kts
12-Feb-20 19:18 32.658696 -116.813837 260 5022ft 182kts
12-Feb-20 19:19 32.658845 -116.873532 280 5018ft 182kts
12-Feb-20 19:20 32.670861 -116.932102 284 4583ft 180kts
12-Feb-20 19:21 32.684642 -116.989079 285 3375ft 176kts
12-Feb-20 19:22 32.697511 -117.041675 285 2176ft 163kts
12-Feb-20 19:23 32.709890 -117.092340 286 1928ft 163kts
12-Feb-20 19:24 32.721252 -117.139914 287 787ft 143kts
12-Feb-20 19:25 32.732416 -117.184926 286 28ft 138kts
12-Feb-20 19:26 32.736217 -117.200731 283 27ft 24kts
12-Feb-20 19:27 32.735673 -117.202219 221 28ft 0kts
12-Feb-20 19:28 32.735909 -117.203686 274 28ft 8kts
12-Feb-20 19:29 32.734112 -117.205556 179 28ft 6kts
12-Feb-20 19:30 32.732743 -117.205841 189 28ft 5kts
12-Feb-20 19:31 32.732512 -117.205891 190 28ft 0kts
12-Feb-20 19:32 32.732512 -117.205891 190 28ft 0kts
12-Feb-20 19:33 32.732512 -117.205891 190 28ft 0kts
12-Feb-20 19:34 32.732512 -117.205891 190 28ft 0kts
12-Feb-20 19:35 32.732512 -117.205891 190 28ft 0kts
12-Feb-20 19:36 32.732512 -117.205891 190 28ft 0kts
12-Feb-20 19:37 32.732512 -117.205891 190 28ft 0kts
12-Feb-20 19:38 32.732512 -117.205891 190 28ft 0kts

Navigation Log

Ident Type
Flight plan parsing failed, navigation log unavailable